Time;durP1;ratioP1;P1;durP2;ratioP2;P2;SDS_P1;SDS_P2;PMS_P1;PMS_P2;Temp;Humidity;BMP_temperature;BMP_pressure;BME280_temperature;BME280_humidity;BME280_pressure;Samples;Min_cycle;Max_cycle;Signal;HPM_P1;HPM_P2
2022/01/16 00:00:47;;;;;;;14.83;6.33;;;;;;;;;;4996547;28;20209;-77
2022/01/16 00:05:59;;;;;;;13.60;5.80;;;;;;;;;;5002125;28;20224;-78
2022/01/16 00:08:26;;;;;;;19.57;6.07;;;;;;;;;;4998076;28;20295;-78
2022/01/16 00:10:55;;;;;;;20.83;7.00;;;;;;;;;;4995433;28;20667;-78
2022/01/16 00:13:23;;;;;;;16.90;6.20;;;;;;;;;;4994870;28;20228;-77
2022/01/16 00:15:50;;;;;;;16.97;6.27;;;;;;;;;;4995681;28;20208;-77
2022/01/16 00:18:21;;;;;;;16.00;5.83;;;;;;;;;;4993890;28;20213;-77
2022/01/16 00:20:48;;;;;;;19.70;6.27;;;;;;;;;;4998988;28;20295;-77
2022/01/16 00:23:23;;;;;;;17.33;6.67;;;;;;;;;;4995002;28;20252;-77
2022/01/16 00:25:50;;;;;;;16.67;6.33;;;;;;;;;;4997161;28;20199;-77
2022/01/16 00:28:19;;;;;;;21.17;6.83;;;;;;;;;;5000111;28;20291;-78
2022/01/16 00:30:46;;;;;;;19.20;7.33;;;;;;;;;;4997280;28;20588;-77
2022/01/16 00:33:13;;;;;;;23.40;8.40;;;;;;;;;;4992849;28;20483;-77
2022/01/16 00:35:41;;;;;;;22.40;7.97;;;;;;;;;;4997413;28;20731;-77
2022/01/16 00:38:08;;;;;;;21.17;7.63;;;;;;;;;;4997583;28;20240;-77
2022/01/16 00:40:35;;;;;;;20.13;7.43;;;;;;;;;;4996229;28;20237;-77
2022/01/16 00:43:03;;;;;;;23.70;7.87;;;;;;;;;;4998832;28;20257;-77
2022/01/16 00:45:34;;;;;;;24.27;7.97;;;;;;;;;;4995526;28;20745;-77
2022/01/16 00:48:02;;;;;;;20.10;7.80;;;;;;;;;;4997250;28;20233;-77
2022/01/16 00:50:29;;;;;;;25.23;8.80;;;;;;;;;;4995793;28;20201;-77
2022/01/16 00:52:56;;;;;;;25.77;9.23;;;;;;;;;;4999858;28;20240;-77
2022/01/16 00:55:23;;;;;;;23.53;8.20;;;;;;;;;;4994763;28;20533;-77
2022/01/16 00:57:50;;;;;;;23.27;9.27;;;;;;;;;;4999475;28;20313;-77
2022/01/16 01:00:18;;;;;;;25.37;8.20;;;;;;;;;;4997758;28;20207;-78
2022/01/16 01:02:47;;;;;;;34.13;9.33;;;;;;;;;;4995146;28;20472;-76
2022/01/16 01:05:14;;;;;;;20.43;7.73;;;;;;;;;;4993051;28;20201;-76
2022/01/16 01:07:42;;;;;;;23.93;9.20;;;;;;;;;;4999086;28;20227;-77
2022/01/16 01:10:09;;;;;;;26.87;9.27;;;;;;;;;;4994008;28;20233;-77
2022/01/16 01:12:52;;;;;;;24.53;8.73;;;;;;;;;;4997246;28;20232;-77
2022/01/16 01:15:20;;;;;;;25.67;9.37;;;;;;;;;;4994842;28;20209;-77
2022/01/16 01:17:49;;;;;;;21.83;8.07;;;;;;;;;;4995449;28;20201;-78
2022/01/16 01:20:18;;;;;;;17.07;7.10;;;;;;;;;;4993613;28;20213;-76
2022/01/16 01:22:46;;;;;;;12.70;5.33;;;;;;;;;;4998520;28;20373;-77
2022/01/16 01:25:14;;;;;;;13.77;5.60;;;;;;;;;;5000261;28;20598;-77
2022/01/16 01:27:43;;;;;;;14.17;5.37;;;;;;;;;;4999092;28;20335;-77
2022/01/16 01:30:11;;;;;;;13.30;5.17;;;;;;;;;;4999243;28;20316;-78
2022/01/16 01:32:39;;;;;;;9.83;4.53;;;;;;;;;;5003935;28;20319;-78
2022/01/16 01:35:08;;;;;;;12.43;5.07;;;;;;;;;;5001465;28;20579;-77
2022/01/16 01:37:36;;;;;;;11.63;5.17;;;;;;;;;;5002867;28;20209;-78
2022/01/16 01:40:04;;;;;;;13.50;5.33;;;;;;;;;;4996550;28;20473;-77
2022/01/16 01:42:34;;;;;;;14.43;5.77;;;;;;;;;;4999840;28;20319;-77
2022/01/16 01:53:18;;;;;;;15.77;5.37;;;;;;;;;;4996486;28;20513;-78
2022/01/16 01:55:46;;;;;;;16.10;5.87;;;;;;;;;;5003863;28;20302;-78
2022/01/16 01:58:14;;;;;;;16.50;5.83;;;;;;;;;;4998750;28;20212;-78
2022/01/16 02:00:41;;;;;;;14.27;5.47;;;;;;;;;;4998170;28;20220;-77
2022/01/16 02:03:17;;;;;;;11.90;4.80;;;;;;;;;;4999507;28;20274;-77
2022/01/16 02:05:45;;;;;;;12.90;5.37;;;;;;;;;;4999529;28;20263;-77
2022/01/16 02:08:13;;;;;;;12.10;4.83;;;;;;;;;;4995446;28;20318;-78
2022/01/16 02:10:41;;;;;;;10.20;3.97;;;;;;;;;;4998726;28;20300;-77
2022/01/16 02:13:12;;;;;;;8.33;3.47;;;;;;;;;;4998740;28;20294;-77
2022/01/16 02:27:58;;;;;;;7.73;3.53;;;;;;;;;;4997785;28;20455;-77
2022/01/16 02:35:08;;;;;;;9.27;4.23;;;;;;;;;;4993356;28;20205;-77
2022/01/16 02:37:35;;;;;;;10.57;4.37;;;;;;;;;;4995869;28;20229;-77
2022/01/16 02:40:12;;;;;;;12.47;4.53;;;;;;;;;;4997897;28;20215;-77
2022/01/16 02:42:44;;;;;;;9.43;4.43;;;;;;;;;;4998856;28;20493;-77
2022/01/16 02:45:17;;;;;;;8.63;4.17;;;;;;;;;;4999121;28;20541;-77
2022/01/16 02:47:44;;;;;;;8.93;4.27;;;;;;;;;;4997407;28;20493;-77
2022/01/16 02:50:11;;;;;;;9.90;4.43;;;;;;;;;;5001180;28;20215;-77
2022/01/16 02:52:39;;;;;;;8.43;4.33;;;;;;;;;;4999615;28;20474;-77
2022/01/16 02:55:09;;;;;;;9.27;4.20;;;;;;;;;;4996103;28;20551;-77
2022/01/16 02:57:36;;;;;;;11.00;4.40;;;;;;;;;;5000989;28;20236;-77
2022/01/16 03:00:05;;;;;;;10.90;4.67;;;;;;;;;;4998281;28;20292;-77
2022/01/16 03:02:32;;;;;;;13.00;5.10;;;;;;;;;;5001158;28;20255;-77
2022/01/16 03:05:00;;;;;;;10.03;4.80;;;;;;;;;;4994865;28;20205;-77
2022/01/16 03:07:27;;;;;;;11.23;5.20;;;;;;;;;;4997531;28;20338;-78
2022/01/16 03:10:11;;;;;;;9.33;4.67;;;;;;;;;;4999838;28;20229;-78
2022/01/16 03:12:39;;;;;;;11.83;5.30;;;;;;;;;;4998059;28;20227;-78
2022/01/16 03:15:07;;;;;;;10.77;4.70;;;;;;;;;;4997188;28;20283;-78
2022/01/16 03:17:40;;;;;;;10.43;4.37;;;;;;;;;;4999953;28;20200;-78
2022/01/16 03:22:52;;;;;;;14.73;5.63;;;;;;;;;;5002124;28;20279;-77
2022/01/16 03:25:20;;;;;;;12.57;5.60;;;;;;;;;;5000331;28;20328;-78
2022/01/16 03:27:48;;;;;;;14.60;5.67;;;;;;;;;;4997325;28;20658;-78
2022/01/16 03:30:16;;;;;;;17.70;6.50;;;;;;;;;;5001097;28;20215;-77
2022/01/16 03:32:43;;;;;;;14.77;6.30;;;;;;;;;;4994687;28;20231;-77
2022/01/16 03:35:10;;;;;;;14.47;6.47;;;;;;;;;;4998493;28;20249;-78
2022/01/16 03:37:37;;;;;;;14.43;5.97;;;;;;;;;;4998966;28;20295;-77
2022/01/16 03:40:07;;;;;;;13.13;6.03;;;;;;;;;;5001030;28;20201;-77
2022/01/16 03:42:36;;;;;;;12.83;5.73;;;;;;;;;;5002408;28;20274;-77
2022/01/16 03:45:05;;;;;;;14.33;6.33;;;;;;;;;;4998268;28;20216;-78
2022/01/16 03:47:32;;;;;;;14.73;5.50;;;;;;;;;;4998719;28;20225;-77
2022/01/16 03:49:59;;;;;;;15.73;6.33;;;;;;;;;;4994867;28;20201;-77
2022/01/16 03:52:27;;;;;;;16.77;6.97;;;;;;;;;;5000849;28;20244;-77
2022/01/16 03:54:54;;;;;;;13.17;6.03;;;;;;;;;;4995108;28;20221;-78
2022/01/16 03:57:21;;;;;;;13.70;5.63;;;;;;;;;;4999562;28;20294;-77
2022/01/16 03:59:48;;;;;;;15.43;6.17;;;;;;;;;;4995685;28;20586;-77
2022/01/16 04:02:17;;;;;;;12.87;5.73;;;;;;;;;;5002106;28;20318;-78
2022/01/16 04:04:44;;;;;;;13.87;6.30;;;;;;;;;;4998512;28;20205;-78
2022/01/16 04:07:17;;;;;;;14.53;6.20;;;;;;;;;;4998789;28;20242;-77
2022/01/16 04:09:44;;;;;;;14.00;6.07;;;;;;;;;;4996651;28;20218;-77
2022/01/16 04:12:11;;;;;;;14.13;6.43;;;;;;;;;;4998557;28;20260;-78
2022/01/16 04:17:25;;;;;;;13.57;6.50;;;;;;;;;;5000757;28;20286;-78
2022/01/16 04:19:53;;;;;;;16.23;6.30;;;;;;;;;;4995145;28;20212;-78
2022/01/16 04:22:21;;;;;;;16.33;6.30;;;;;;;;;;4997251;28;20243;-78
2022/01/16 04:24:49;;;;;;;17.50;6.13;;;;;;;;;;4996562;28;20746;-78
2022/01/16 04:27:16;;;;;;;14.73;6.63;;;;;;;;;;4996520;28;20232;-78
2022/01/16 04:29:43;;;;;;;12.87;6.40;;;;;;;;;;4997757;28;20205;-78
2022/01/16 04:32:11;;;;;;;14.63;6.37;;;;;;;;;;4996262;28;20242;-77
2022/01/16 04:34:40;;;;;;;13.93;6.03;;;;;;;;;;5000157;28;20236;-77
2022/01/16 04:37:07;;;;;;;18.73;6.60;;;;;;;;;;4993741;28;20209;-76
2022/01/16 04:39:36;;;;;;;20.57;7.60;;;;;;;;;;4996180;28;20472;-76
2022/01/16 04:44:51;;;;;;;16.00;7.13;;;;;;;;;;4997607;28;20285;-77
2022/01/16 04:47:18;;;;;;;16.43;7.20;;;;;;;;;;4996639;28;20228;-77
2022/01/16 04:49:46;;;;;;;15.50;6.20;;;;;;;;;;4996838;28;20291;-76
2022/01/16 04:52:14;;;;;;;19.93;7.30;;;;;;;;;;4997084;28;20224;-77
2022/01/16 04:54:41;;;;;;;23.67;8.23;;;;;;;;;;4996306;28;20304;-76
2022/01/16 04:57:08;;;;;;;15.40;7.20;;;;;;;;;;5002206;28;20213;-76
2022/01/16 04:59:35;;;;;;;24.60;7.60;;;;;;;;;;4999991;28;20307;-76
2022/01/16 05:02:02;;;;;;;14.97;7.53;;;;;;;;;;5002645;28;20296;-77
2022/01/16 05:04:29;;;;;;;16.37;6.67;;;;;;;;;;4999519;28;20295;-77
2022/01/16 05:06:58;;;;;;;17.93;7.47;;;;;;;;;;5001826;28;20527;-77
2022/01/16 05:09:25;;;;;;;17.27;6.93;;;;;;;;;;4996391;28;20220;-77
2022/01/16 05:11:56;;;;;;;21.50;7.93;;;;;;;;;;5000087;28;20295;-77
2022/01/16 05:17:08;;;;;;;17.43;7.20;;;;;;;;;;5001515;28;20289;-77
2022/01/16 05:19:37;;;;;;;18.73;7.80;;;;;;;;;;4999596;28;20212;-77
2022/01/16 05:22:06;;;;;;;21.27;7.60;;;;;;;;;;5001928;28;20282;-77
2022/01/16 05:24:33;;;;;;;22.00;8.30;;;;;;;;;;5000829;28;20295;-76
2022/01/16 05:27:01;;;;;;;19.40;7.70;;;;;;;;;;4998458;28;20224;-77
2022/01/16 05:29:28;;;;;;;16.73;7.07;;;;;;;;;;5000289;28;20311;-77
2022/01/16 05:31:55;;;;;;;17.63;7.47;;;;;;;;;;5003741;28;20300;-78
2022/01/16 05:34:25;;;;;;;18.77;7.50;;;;;;;;;;4998503;28;20201;-78
2022/01/16 05:36:53;;;;;;;22.53;7.83;;;;;;;;;;4999155;28;20285;-77
2022/01/16 05:39:22;;;;;;;18.10;7.67;;;;;;;;;;5000084;28;20592;-77
2022/01/16 05:41:49;;;;;;;24.27;7.63;;;;;;;;;;5004430;28;20209;-77
2022/01/16 05:44:17;;;;;;;22.00;7.73;;;;;;;;;;5000834;28;20241;-77
2022/01/16 05:46:44;;;;;;;18.00;7.73;;;;;;;;;;5002341;28;20209;-78
2022/01/16 05:49:11;;;;;;;18.17;7.90;;;;;;;;;;4999380;28;20620;-77
2022/01/16 05:51:38;;;;;;;18.30;8.23;;;;;;;;;;5000707;28;20209;-78
2022/01/16 05:54:05;;;;;;;21.57;8.63;;;;;;;;;;4997409;28;20229;-77
2022/01/16 05:56:34;;;;;;;20.20;7.53;;;;;;;;;;5001064;28;20308;-77
2022/01/16 05:59:01;;;;;;;21.33;8.23;;;;;;;;;;4996022;28;20555;-77
2022/01/16 06:01:28;;;;;;;23.53;8.03;;;;;;;;;;4998826;28;20296;-77
2022/01/16 06:03:55;;;;;;;18.77;7.87;;;;;;;;;;4999904;28;20303;-77
2022/01/16 06:06:23;;;;;;;21.63;9.07;;;;;;;;;;4999536;28;20274;-78
2022/01/16 06:08:50;;;;;;;19.23;8.53;;;;;;;;;;4998564;28;20715;-77
2022/01/16 06:11:17;;;;;;;27.43;9.53;;;;;;;;;;4997090;28;20308;-78
2022/01/16 06:13:46;;;;;;;25.10;8.20;;;;;;;;;;4998221;28;21435;-77
2022/01/16 06:16:13;;;;;;;23.73;8.30;;;;;;;;;;4997125;28;20585;-77
2022/01/16 06:18:40;;;;;;;22.33;8.93;;;;;;;;;;5001405;28;20697;-77
2022/01/16 06:21:07;;;;;;;25.23;9.07;;;;;;;;;;4998577;28;20634;-77
2022/01/16 06:23:34;;;;;;;22.67;8.47;;;;;;;;;;4997623;28;20267;-76
2022/01/16 06:26:02;;;;;;;30.83;9.53;;;;;;;;;;5000148;28;20282;-77
2022/01/16 06:28:30;;;;;;;23.90;9.67;;;;;;;;;;4999518;28;20771;-77
2022/01/16 06:30:59;;;;;;;26.33;10.23;;;;;;;;;;5001298;28;20243;-77
2022/01/16 06:33:27;;;;;;;23.53;9.57;;;;;;;;;;5002855;28;20275;-77
2022/01/16 06:35:55;;;;;;;23.63;9.27;;;;;;;;;;4997916;28;20209;-77
2022/01/16 06:38:22;;;;;;;27.40;9.33;;;;;;;;;;4998561;28;20284;-77
2022/01/16 06:40:49;;;;;;;22.90;9.17;;;;;;;;;;5000555;28;20698;-77
2022/01/16 06:43:16;;;;;;;24.97;9.17;;;;;;;;;;4997550;28;20236;-77
2022/01/16 06:45:44;;;;;;;24.23;9.27;;;;;;;;;;4995929;28;20214;-78
2022/01/16 06:48:12;;;;;;;30.47;10.30;;;;;;;;;;5001822;28;20232;-78
2022/01/16 06:50:39;;;;;;;27.00;9.87;;;;;;;;;;4999341;28;20205;-78
2022/01/16 06:53:06;;;;;;;26.40;10.57;;;;;;;;;;4997904;28;20231;-77
2022/01/16 06:55:34;;;;;;;34.27;10.80;;;;;;;;;;4997521;28;20295;-78
2022/01/16 06:58:01;;;;;;;26.93;9.70;;;;;;;;;;4997360;28;20336;-77
2022/01/16 07:00:28;;;;;;;26.33;10.03;;;;;;;;;;4999057;28;20203;-78
2022/01/16 07:02:55;;;;;;;30.13;10.30;;;;;;;;;;4998066;28;20312;-78
2022/01/16 07:05:24;;;;;;;23.43;9.57;;;;;;;;;;4997168;28;20197;-78
2022/01/16 07:07:51;;;;;;;31.23;10.10;;;;;;;;;;4997024;28;20660;-78
2022/01/16 07:10:19;;;;;;;29.13;10.50;;;;;;;;;;4996478;28;21206;-78
2022/01/16 07:12:47;;;;;;;23.43;9.70;;;;;;;;;;5001895;28;20225;-77
2022/01/16 07:15:14;;;;;;;24.17;10.00;;;;;;;;;;4995920;28;20255;-78
2022/01/16 07:17:41;;;;;;;24.07;9.50;;;;;;;;;;4999739;28;20719;-78
2022/01/16 07:20:09;;;;;;;29.67;10.60;;;;;;;;;;4998540;28;20587;-77
2022/01/16 07:22:37;;;;;;;30.17;11.33;;;;;;;;;;4995104;28;20232;-78
2022/01/16 07:25:05;;;;;;;34.93;10.43;;;;;;;;;;4997587;28;20215;-77
2022/01/16 07:27:32;;;;;;;38.67;11.57;;;;;;;;;;4998982;28;20766;-77
2022/01/16 07:29:59;;;;;;;42.93;12.77;;;;;;;;;;5001558;28;20610;-78
2022/01/16 07:32:26;;;;;;;41.33;11.80;;;;;;;;;;4997752;28;20239;-77
2022/01/16 07:34:53;;;;;;;44.37;12.57;;;;;;;;;;4997330;28;20208;-78
2022/01/16 07:37:21;;;;;;;35.00;12.10;;;;;;;;;;5003556;28;20208;-77
2022/01/16 07:39:49;;;;;;;38.23;12.67;;;;;;;;;;4994972;28;20750;-77
2022/01/16 07:42:16;;;;;;;41.97;13.20;;;;;;;;;;4998942;28;20316;-78
2022/01/16 07:44:44;;;;;;;42.17;12.77;;;;;;;;;;4999304;28;20230;-77
2022/01/16 07:47:11;;;;;;;41.90;12.87;;;;;;;;;;4997712;28;20217;-78
2022/01/16 07:49:38;;;;;;;33.83;11.93;;;;;;;;;;4996589;28;20316;-78
2022/01/16 07:52:06;;;;;;;39.93;12.67;;;;;;;;;;4994431;28;20363;-78
2022/01/16 07:54:33;;;;;;;51.03;14.70;;;;;;;;;;4998704;28;20205;-78
2022/01/16 07:57:02;;;;;;;47.40;13.87;;;;;;;;;;4993411;28;20209;-78
2022/01/16 07:59:30;;;;;;;35.83;12.33;;;;;;;;;;5000183;28;20668;-79
2022/01/16 08:01:57;;;;;;;49.37;15.00;;;;;;;;;;4999683;28;20205;-78
2022/01/16 08:04:24;;;;;;;47.23;15.20;;;;;;;;;;4998183;28;20652;-78
2022/01/16 08:06:51;;;;;;;50.57;16.10;;;;;;;;;;4999613;28;20217;-78
2022/01/16 08:09:18;;;;;;;50.63;16.03;;;;;;;;;;4998658;28;20225;-78
2022/01/16 08:11:45;;;;;;;47.60;15.13;;;;;;;;;;4994075;28;20208;-78
2022/01/16 08:14:14;;;;;;;43.40;13.47;;;;;;;;;;4998749;28;20292;-78
2022/01/16 08:16:41;;;;;;;42.57;14.70;;;;;;;;;;4995269;28;20751;-78
2022/01/16 08:19:08;;;;;;;43.50;15.37;;;;;;;;;;5000630;28;20315;-78
2022/01/16 08:21:36;;;;;;;39.67;14.33;;;;;;;;;;4999843;28;20283;-78
2022/01/16 08:24:04;;;;;;;47.83;14.47;;;;;;;;;;4997740;28;20224;-78
2022/01/16 08:26:31;;;;;;;39.27;15.07;;;;;;;;;;4994685;28;20638;-78
2022/01/16 08:28:58;;;;;;;41.90;15.03;;;;;;;;;;4998871;28;20250;-78
2022/01/16 08:31:27;;;;;;;47.67;16.37;;;;;;;;;;4997271;28;20308;-78
2022/01/16 08:33:54;;;;;;;46.67;14.97;;;;;;;;;;4997828;28;20322;-78
2022/01/16 08:36:21;;;;;;;48.83;15.43;;;;;;;;;;4995817;28;20235;-78
2022/01/16 08:38:49;;;;;;;47.37;15.43;;;;;;;;;;4996517;28;20207;-79
2022/01/16 08:41:16;;;;;;;42.57;14.67;;;;;;;;;;4996990;28;20282;-78
2022/01/16 08:43:43;;;;;;;44.57;15.13;;;;;;;;;;4998885;28;20339;-79
2022/01/16 08:46:10;;;;;;;57.37;18.33;;;;;;;;;;4994888;28;20304;-78
2022/01/16 08:48:39;;;;;;;54.90;19.30;;;;;;;;;;5000574;28;20670;-79
2022/01/16 08:51:06;;;;;;;58.33;19.33;;;;;;;;;;5002862;28;20204;-79
2022/01/16 08:53:33;;;;;;;54.50;18.80;;;;;;;;;;5000631;28;20242;-78
2022/01/16 08:56:01;;;;;;;59.47;20.33;;;;;;;;;;5002758;28;20201;-78
2022/01/16 08:58:28;;;;;;;55.07;20.07;;;;;;;;;;4996938;28;20283;-78
2022/01/16 09:00:55;;;;;;;55.60;19.27;;;;;;;;;;4998022;28;20431;-79
2022/01/16 09:03:23;;;;;;;62.90;21.17;;;;;;;;;;4998028;28;20216;-79
2022/01/16 09:05:52;;;;;;;61.77;19.30;;;;;;;;;;5000034;28;20243;-79
2022/01/16 09:08:20;;;;;;;57.20;19.27;;;;;;;;;;4998444;28;20243;-79
2022/01/16 09:10:47;;;;;;;63.60;20.70;;;;;;;;;;5000027;28;20230;-79
2022/01/16 09:13:16;;;;;;;54.07;18.63;;;;;;;;;;4996994;28;20320;-79
2022/01/16 09:15:43;;;;;;;59.47;19.53;;;;;;;;;;5000870;28;20239;-78
2022/01/16 09:18:10;;;;;;;57.17;19.40;;;;;;;;;;5001580;28;20303;-78
2022/01/16 09:20:38;;;;;;;54.93;20.03;;;;;;;;;;5002935;28;20283;-79
2022/01/16 09:23:06;;;;;;;57.20;21.27;;;;;;;;;;4997302;28;20264;-78
2022/01/16 09:25:33;;;;;;;56.63;21.10;;;;;;;;;;5001044;28;20211;-78
2022/01/16 09:28:01;;;;;;;54.43;18.53;;;;;;;;;;5000079;28;20224;-78
2022/01/16 09:30:28;;;;;;;57.50;19.83;;;;;;;;;;5000310;28;20311;-79
2022/01/16 09:32:55;;;;;;;56.10;19.83;;;;;;;;;;4997912;28;20312;-78
2022/01/16 09:35:23;;;;;;;56.23;20.17;;;;;;;;;;4998625;28;20731;-78
2022/01/16 09:37:50;;;;;;;56.10;21.73;;;;;;;;;;4998326;28;20211;-78
2022/01/16 09:40:20;;;;;;;58.53;20.70;;;;;;;;;;4994637;28;20201;-78
2022/01/16 09:42:48;;;;;;;62.37;21.40;;;;;;;;;;5000711;28;20237;-78
2022/01/16 09:45:16;;;;;;;63.13;21.67;;;;;;;;;;4996941;28;20635;-78
2022/01/16 09:47:44;;;;;;;56.90;21.10;;;;;;;;;;5001788;28;20228;-78
2022/01/16 09:50:12;;;;;;;59.67;21.33;;;;;;;;;;5000364;28;20224;-78
2022/01/16 09:52:40;;;;;;;57.57;20.70;;;;;;;;;;4998137;28;20234;-78
2022/01/16 09:55:09;;;;;;;59.70;21.53;;;;;;;;;;4996518;28;20292;-79
2022/01/16 09:57:37;;;;;;;59.17;23.03;;;;;;;;;;4997727;28;20197;-78
2022/01/16 10:00:05;;;;;;;52.07;20.53;;;;;;;;;;5000569;28;20292;-78
2022/01/16 10:02:33;;;;;;;62.97;23.27;;;;;;;;;;4998126;28;20237;-78
2022/01/16 10:05:00;;;;;;;63.23;23.33;;;;;;;;;;5000159;28;20235;-78
2022/01/16 10:07:27;;;;;;;60.70;23.50;;;;;;;;;;5002037;28;20313;-78
2022/01/16 10:10:06;;;;;;;57.77;22.77;;;;;;;;;;4997788;28;20597;-78
2022/01/16 10:12:34;;;;;;;66.87;25.30;;;;;;;;;;5001812;28;20437;-79
2022/01/16 10:15:16;;;;;;;65.27;25.07;;;;;;;;;;4997816;28;20262;-78
2022/01/16 10:17:45;;;;;;;64.23;24.00;;;;;;;;;;4997322;28;20201;-78
2022/01/16 10:20:12;;;;;;;54.43;21.00;;;;;;;;;;4997564;28;20208;-78
2022/01/16 10:22:40;;;;;;;58.07;20.40;;;;;;;;;;4998598;28;20308;-78
2022/01/16 10:25:08;;;;;;;49.20;18.93;;;;;;;;;;5001718;28;20295;-78
2022/01/16 10:27:36;;;;;;;47.67;19.27;;;;;;;;;;4997504;28;20291;-78
2022/01/16 10:30:07;;;;;;;50.10;17.20;;;;;;;;;;4999161;28;20243;-78
2022/01/16 10:32:37;;;;;;;43.70;17.47;;;;;;;;;;4998805;28;20248;-78
2022/01/16 10:35:11;;;;;;;39.40;17.50;;;;;;;;;;4998830;28;20227;-78
2022/01/16 10:37:39;;;;;;;41.53;15.83;;;;;;;;;;4995810;28;20232;-78
2022/01/16 10:40:10;;;;;;;51.97;22.20;;;;;;;;;;5000426;28;20200;-78
2022/01/16 10:42:39;;;;;;;53.77;23.47;;;;;;;;;;4998790;28;20237;-78
2022/01/16 10:45:09;;;;;;;64.73;28.40;;;;;;;;;;4999115;28;20212;-80
2022/01/16 10:47:37;;;;;;;42.30;19.20;;;;;;;;;;5000808;28;20662;-78
2022/01/16 10:50:06;;;;;;;58.10;28.93;;;;;;;;;;5005476;28;20260;-78
2022/01/16 10:52:34;;;;;;;51.67;20.17;;;;;;;;;;4997451;28;20364;-78
2022/01/16 10:55:08;;;;;;;47.50;20.20;;;;;;;;;;4998278;28;20322;-78
2022/01/16 10:57:35;;;;;;;47.87;20.00;;;;;;;;;;5000887;28;20214;-78
2022/01/16 11:00:09;;;;;;;41.37;18.60;;;;;;;;;;4998684;28;20295;-78
2022/01/16 11:02:36;;;;;;;49.73;19.17;;;;;;;;;;4999215;28;20270;-78
2022/01/16 11:05:08;;;;;;;47.57;19.77;;;;;;;;;;5000229;28;20244;-78
2022/01/16 11:07:35;;;;;;;46.07;19.03;;;;;;;;;;4998360;28;20291;-78
2022/01/16 11:10:12;;;;;;;46.47;19.37;;;;;;;;;;4999366;28;20263;-78
2022/01/16 11:12:39;;;;;;;45.60;18.73;;;;;;;;;;4999517;28;20238;-78
2022/01/16 11:15:08;;;;;;;47.33;18.30;;;;;;;;;;4997093;28;20244;-78
2022/01/16 11:17:36;;;;;;;44.67;19.10;;;;;;;;;;4995302;28;20300;-78
2022/01/16 11:20:04;;;;;;;46.83;18.23;;;;;;;;;;4996848;28;20212;-78
2022/01/16 11:22:35;;;;;;;53.73;20.17;;;;;;;;;;4997244;28;20311;-78
2022/01/16 11:25:12;;;;;;;46.70;19.70;;;;;;;;;;5000513;28;20267;-78
2022/01/16 11:27:41;;;;;;;47.97;19.63;;;;;;;;;;4994165;28;20345;-78
2022/01/16 11:30:10;;;;;;;46.70;20.43;;;;;;;;;;4992960;28;20235;-78
2022/01/16 11:32:37;;;;;;;43.97;18.40;;;;;;;;;;4993063;28;20231;-78
2022/01/16 11:35:05;;;;;;;42.53;18.70;;;;;;;;;;4999769;28;20239;-78
2022/01/16 11:37:32;;;;;;;40.60;18.63;;;;;;;;;;4998244;28;20263;-78
2022/01/16 11:40:14;;;;;;;46.00;18.87;;;;;;;;;;4998771;28;20617;-78
2022/01/16 11:42:41;;;;;;;45.27;18.83;;;;;;;;;;4995947;28;20398;-78
2022/01/16 11:45:11;;;;;;;43.33;17.97;;;;;;;;;;4997314;28;20213;-78
2022/01/16 11:47:57;;;;;;;41.17;17.43;;;;;;;;;;4996850;28;20278;-78
2022/01/16 11:50:34;;;;;;;44.53;18.43;;;;;;;;;;4997592;28;20235;-78
2022/01/16 11:53:01;;;;;;;38.50;18.03;;;;;;;;;;4995567;28;20307;-78
2022/01/16 11:55:33;;;;;;;42.27;17.60;;;;;;;;;;4997113;28;20209;-78
2022/01/16 11:58:01;;;;;;;37.57;16.80;;;;;;;;;;4996980;28;20259;-78
2022/01/16 12:00:42;;;;;;;44.17;17.00;;;;;;;;;;4997927;28;20710;-78
2022/01/16 12:03:24;;;;;;;46.53;17.63;;;;;;;;;;4993285;28;20271;-78
2022/01/16 12:05:55;;;;;;;42.53;18.17;;;;;;;;;;4994969;28;20251;-78
2022/01/16 12:08:34;;;;;;;43.17;18.20;;;;;;;;;;4996881;28;20219;-78
2022/01/16 12:11:01;;;;;;;37.33;17.37;;;;;;;;;;4996870;28;20239;-78
2022/01/16 12:13:57;;;;;;;96.13;41.70;;;;;;;;;;4998752;28;20225;-78
2022/01/16 12:16:42;;;;;;;46.73;22.13;;;;;;;;;;4996983;28;20201;-78
2022/01/16 12:19:29;;;;;;;48.10;19.03;;;;;;;;;;4995530;28;20636;-78
2022/01/16 12:21:56;;;;;;;45.60;20.57;;;;;;;;;;4998517;28;20267;-78
2022/01/16 12:24:36;;;;;;;43.93;18.73;;;;;;;;;;5000123;28;20241;-79
2022/01/16 12:27:22;;;;;;;43.73;18.70;;;;;;;;;;4999189;28;20248;-79
2022/01/16 12:30:04;;;;;;;39.97;18.73;;;;;;;;;;4998631;28;20300;-78
2022/01/16 12:32:52;;;;;;;49.07;22.17;;;;;;;;;;4996131;28;20268;-78
2022/01/16 12:35:40;;;;;;;48.23;19.17;;;;;;;;;;4999953;28;20300;-77
2022/01/16 12:38:07;;;;;;;44.67;18.87;;;;;;;;;;5000550;28;20291;-76
2022/01/16 12:40:35;;;;;;;47.03;20.20;;;;;;;;;;4999752;28;20228;-76
2022/01/16 12:43:04;;;;;;;44.40;20.23;;;;;;;;;;4994827;28;20311;-77
2022/01/16 12:45:31;;;;;;;44.30;19.90;;;;;;;;;;4996002;28;20279;-77
2022/01/16 12:47:59;;;;;;;46.23;19.87;;;;;;;;;;4995578;28;20282;-76
2022/01/16 12:50:29;;;;;;;46.13;20.20;;;;;;;;;;4996924;28;20754;-76
2022/01/16 12:52:56;;;;;;;40.17;17.63;;;;;;;;;;4996059;28;20314;-76
2022/01/16 12:55:27;;;;;;;44.70;19.10;;;;;;;;;;4994139;28;20200;-76
2022/01/16 12:57:54;;;;;;;50.57;23.17;;;;;;;;;;4993887;28;20204;-76
2022/01/16 13:00:21;;;;;;;46.60;20.80;;;;;;;;;;4994581;28;20337;-76
2022/01/16 13:02:53;;;;;;;37.73;18.17;;;;;;;;;;4995014;28;20256;-76
2022/01/16 13:05:22;;;;;;;52.60;22.97;;;;;;;;;;4998561;28;20210;-76
2022/01/16 13:07:49;;;;;;;53.67;19.67;;;;;;;;;;4993129;28;20679;-76
2022/01/16 13:10:16;;;;;;;51.03;22.33;;;;;;;;;;4991583;28;20226;-77
2022/01/16 13:12:44;;;;;;;50.30;20.53;;;;;;;;;;4997620;28;20244;-77
2022/01/16 13:15:12;;;;;;;45.30;18.87;;;;;;;;;;4997184;28;20661;-77
2022/01/16 13:17:39;;;;;;;47.27;19.50;;;;;;;;;;4993322;28;20776;-77
2022/01/16 13:20:14;;;;;;;47.57;19.33;;;;;;;;;;4998280;28;20262;-77
2022/01/16 13:22:43;;;;;;;46.23;19.03;;;;;;;;;;4999060;28;20231;-77
2022/01/16 13:25:11;;;;;;;48.83;19.23;;;;;;;;;;4999369;28;20205;-77
2022/01/16 13:27:39;;;;;;;39.93;17.70;;;;;;;;;;4999224;28;20263;-77
2022/01/16 13:30:09;;;;;;;45.77;17.53;;;;;;;;;;5001271;28;20314;-77
2022/01/16 13:32:37;;;;;;;54.37;19.33;;;;;;;;;;4997494;28;20691;-77
2022/01/16 13:35:05;;;;;;;66.23;25.83;;;;;;;;;;5001586;28;20315;-77
2022/01/16 13:37:33;;;;;;;129.37;52.40;;;;;;;;;;4997193;28;20303;-77
2022/01/16 13:40:03;;;;;;;48.30;22.70;;;;;;;;;;4998524;28;20240;-77
2022/01/16 13:42:51;;;;;;;48.93;21.90;;;;;;;;;;5001205;28;20228;-77
2022/01/16 13:45:20;;;;;;;50.33;20.90;;;;;;;;;;4999828;28;20244;-77
2022/01/16 13:47:51;;;;;;;52.33;22.10;;;;;;;;;;4996634;28;20296;-77
2022/01/16 13:50:18;;;;;;;51.87;22.83;;;;;;;;;;4995717;28;20230;-77
2022/01/16 13:52:51;;;;;;;49.73;20.43;;;;;;;;;;4995355;28;20233;-78
2022/01/16 13:55:20;;;;;;;48.70;19.07;;;;;;;;;;4997600;28;20207;-77
2022/01/16 13:57:48;;;;;;;46.30;18.60;;;;;;;;;;4999077;28;20205;-76
2022/01/16 14:00:15;;;;;;;49.23;18.63;;;;;;;;;;5000295;28;20212;-76
2022/01/16 14:02:43;;;;;;;48.93;20.23;;;;;;;;;;4998297;28;20598;-76
2022/01/16 14:05:10;;;;;;;48.07;19.47;;;;;;;;;;4997409;28;20225;-75
2022/01/16 14:07:38;;;;;;;47.70;20.00;;;;;;;;;;4994310;28;20288;-77
2022/01/16 14:10:05;;;;;;;49.17;20.30;;;;;;;;;;4999470;28;20207;-77
2022/01/16 14:12:34;;;;;;;49.07;19.67;;;;;;;;;;4995988;28;20235;-77
2022/01/16 14:15:01;;;;;;;41.97;17.97;;;;;;;;;;4992000;28;20228;-77
2022/01/16 14:17:43;;;;;;;47.87;17.97;;;;;;;;;;4996179;28;20284;-77
2022/01/16 14:23:11;;;;;;;37.97;15.70;;;;;;;;;;4965349;28;20240;-77
2022/01/16 14:25:39;;;;;;;42.27;17.10;;;;;;;;;;4999873;28;20236;-76
2022/01/16 14:28:08;;;;;;;36.20;14.93;;;;;;;;;;4999469;28;20201;-77
2022/01/16 14:30:35;;;;;;;41.87;16.60;;;;;;;;;;5002476;28;20319;-75
2022/01/16 14:33:02;;;;;;;41.03;17.77;;;;;;;;;;4996613;28;20271;-77
2022/01/16 14:35:30;;;;;;;38.53;16.30;;;;;;;;;;4996766;28;20208;-77
2022/01/16 14:37:57;;;;;;;36.60;16.10;;;;;;;;;;4997688;28;20215;-80
2022/01/16 14:40:24;;;;;;;39.67;15.83;;;;;;;;;;4996834;28;20533;-76
2022/01/16 14:42:59;;;;;;;40.87;17.13;;;;;;;;;;4994353;28;20228;-78
2022/01/16 14:45:28;;;;;;;44.20;16.60;;;;;;;;;;5000670;28;20723;-77
2022/01/16 14:47:55;;;;;;;51.83;23.27;;;;;;;;;;4995739;28;20238;-76
2022/01/16 14:50:23;;;;;;;45.80;19.63;;;;;;;;;;4999540;28;20542;-76
2022/01/16 14:52:50;;;;;;;50.80;23.33;;;;;;;;;;4997690;28;20243;-76
2022/01/16 14:55:17;;;;;;;47.73;21.27;;;;;;;;;;4997112;28;20212;-78
2022/01/16 14:57:45;;;;;;;47.30;19.00;;;;;;;;;;5000534;28;20856;-78
2022/01/16 15:00:13;;;;;;;46.57;17.60;;;;;;;;;;4999573;28;20685;-77
2022/01/16 15:02:42;;;;;;;43.03;16.83;;;;;;;;;;4998540;28;20231;-76
2022/01/16 15:05:11;;;;;;;49.57;19.67;;;;;;;;;;4994840;28;20211;-78
2022/01/16 15:07:40;;;;;;;40.73;17.50;;;;;;;;;;4992515;28;20204;-77
2022/01/16 15:10:08;;;;;;;42.13;17.20;;;;;;;;;;4996242;28;20765;-76
2022/01/16 15:12:36;;;;;;;48.53;19.17;;;;;;;;;;4997367;28;20232;-75
2022/01/16 15:15:04;;;;;;;48.97;20.03;;;;;;;;;;4999021;28;20208;-77